Time;durP1;ratioP1;P1;durP2;ratioP2;P2;SDS_P1;SDS_P2;PMS_P1;PMS_P2;Temp;Humidity;BMP_temperature;BMP_pressure;BME280_temperature;BME280_humidity;BME280_pressure;Samples;Min_cycle;Max_cycle;Signal;HPM_P1;HPM_P2
2021/05/28 00:00:27;;;;;;;13.32;11.68;;;;;;;11.92;90.97;95795.16;4951858;28;20062;-65
2021/05/28 00:02:52;;;;;;;13.57;12.18;;;;;;;11.90;90.66;95794.69;4949853;28;20544;-65
2021/05/28 00:05:17;;;;;;;17.42;13.20;;;;;;;11.89;90.50;95798.44;4934306;29;20032;-65
2021/05/28 00:07:43;;;;;;;12.38;11.23;;;;;;;11.88;90.29;95796.84;4932475;28;20062;-65
2021/05/28 00:10:09;;;;;;;13.68;12.20;;;;;;;11.86;90.46;95793.69;4943923;28;20118;-66
2021/05/28 00:12:34;;;;;;;14.73;13.15;;;;;;;11.95;90.48;95805.25;4951226;28;20077;-65
2021/05/28 00:15:00;;;;;;;14.57;12.90;;;;;;;11.85;90.71;95789.44;4951472;28;20436;-65
2021/05/28 00:17:25;;;;;;;12.02;10.02;;;;;;;11.89;90.60;95797.66;4953228;29;20031;-65
2021/05/28 00:19:51;;;;;;;13.45;12.00;;;;;;;11.80;90.34;95791.38;4951494;28;20038;-66
2021/05/28 00:22:16;;;;;;;13.35;11.50;;;;;;;11.89;90.48;95803.75;4950864;28;20497;-65
2021/05/28 00:24:41;;;;;;;13.85;11.20;;;;;;;11.82;90.21;95792.69;4951347;28;20039;-65
2021/05/28 00:27:07;;;;;;;12.35;11.25;;;;;;;11.80;90.45;95786.84;4951238;28;20039;-65
2021/05/28 00:29:32;;;;;;;12.27;11.07;;;;;;;11.78;90.46;95789.03;4953032;29;20047;-64
2021/05/28 00:31:58;;;;;;;11.32;10.32;;;;;;;11.82;90.13;95786.56;4949804;28;20066;-64
2021/05/28 00:34:23;;;;;;;12.43;11.32;;;;;;;11.88;90.46;95791.53;4949542;28;20036;-65
2021/05/28 00:36:49;;;;;;;10.40;9.50;;;;;;;11.79;90.37;95793.25;4949793;28;20147;-65
2021/05/28 00:39:15;;;;;;;10.65;9.70;;;;;;;11.84;90.80;95795.88;4950308;28;20527;-64
2021/05/28 00:41:40;;;;;;;12.30;11.20;;;;;;;11.85;90.62;95799.31;4953016;28;20027;-65
2021/05/28 00:44:06;;;;;;;10.90;9.40;;;;;;;11.84;90.32;95793.19;4950566;28;20055;-65
2021/05/28 00:46:31;;;;;;;12.93;11.63;;;;;;;11.76;90.40;95775.19;4951075;28;20489;-65
2021/05/28 00:48:57;;;;;;;9.90;9.10;;;;;;;11.85;90.23;95794.00;4950868;28;20047;-65
2021/05/28 00:51:23;;;;;;;13.73;10.23;;;;;;;11.74;90.10;95772.03;4951030;28;20071;-65
2021/05/28 00:53:49;;;;;;;8.82;8.13;;;;;;;11.81;90.05;95792.97;4949449;28;20388;-65
2021/05/28 00:56:15;;;;;;;11.77;9.43;;;;;;;11.85;90.03;95791.31;4952880;28;20023;-65
2021/05/28 00:58:41;;;;;;;8.93;8.13;;;;;;;11.89;89.05;95803.75;4950980;28;20040;-66
2021/05/28 01:01:08;;;;;;;9.98;9.02;;;;;;;11.93;89.67;95802.09;4951048;28;20043;-66
2021/05/28 01:03:33;;;;;;;10.18;9.18;;;;;;;11.94;89.13;95801.00;4950514;28;20086;-67
2021/05/28 01:05:59;;;;;;;9.40;4.50;;;;;;;11.65;87.51;95803.09;4950849;28;20027;-66
2021/05/28 01:08:27;;;;;;;6.72;6.13;;;;;;;11.62;87.55;95788.50;4952830;28;20504;-66
2021/05/28 01:10:52;;;;;;;7.80;5.22;;;;;;;11.41;86.75;95797.94;4950900;28;20048;-66
2021/05/28 01:13:18;;;;;;;3.75;3.40;;;;;;;11.32;86.46;95795.16;4949119;28;20039;-66
2021/05/28 01:15:43;;;;;;;5.00;4.60;;;;;;;11.32;86.59;95797.81;4950779;28;20548;-66
2021/05/28 01:18:09;;;;;;;5.90;5.35;;;;;;;11.41;87.27;95803.25;4950732;28;20134;-66
2021/05/28 01:20:35;;;;;;;7.32;6.68;;;;;;;11.39;87.97;95800.09;4952593;29;20030;-65
2021/05/28 01:23:02;;;;;;;7.32;6.70;;;;;;;11.27;87.91;95787.25;4950129;28;20051;-66
2021/05/28 01:25:29;;;;;;;5.45;4.07;;;;;;;11.17;87.12;95804.19;4950606;28;20393;-66
2021/05/28 01:27:55;;;;;;;5.63;5.15;;;;;;;11.06;87.42;95786.00;4950648;28;20038;-66
2021/05/28 01:30:23;;;;;;;6.28;5.68;;;;;;;11.07;87.01;95803.56;4950672;28;20048;-66
2021/05/28 01:32:48;;;;;;;8.55;6.05;;;;;;;10.98;87.22;95800.75;4950103;28;20035;-65
2021/05/28 01:35:14;;;;;;;9.35;7.38;;;;;;;10.80;87.78;95789.06;4952412;28;20026;-65
2021/05/28 01:37:41;;;;;;;6.47;5.88;;;;;;;10.73;88.49;95790.50;4950544;28;20055;-66
2021/05/28 01:40:08;;;;;;;7.07;6.47;;;;;;;10.74;88.62;95802.72;4950482;28;20031;-65
2021/05/28 01:42:34;;;;;;;4.88;4.40;;;;;;;10.53;88.72;95780.94;4949995;28;20054;-66
2021/05/28 01:45:01;;;;;;;7.60;6.78;;;;;;;10.61;88.67;95801.56;4949247;28;20027;-66
2021/05/28 01:47:26;;;;;;;7.50;6.80;;;;;;;10.47;89.24;95771.44;4952277;28;20082;-66
2021/05/28 01:49:52;;;;;;;9.57;6.97;;;;;;;10.61;89.30;95790.94;4951247;28;20043;-66
2021/05/28 01:52:17;;;;;;;9.52;7.10;;;;;;;10.62;89.95;95776.53;4953673;28;20039;-66
2021/05/28 01:54:43;;;;;;;7.53;6.35;;;;;;;10.77;89.46;95796.81;4954053;28;20126;-66
2021/05/28 01:57:10;;;;;;;8.02;7.32;;;;;;;10.74;88.78;95794.72;4953845;28;20110;-66
2021/05/28 01:59:36;;;;;;;9.25;8.45;;;;;;;10.59;88.91;95785.88;4954464;29;20086;-66
2021/05/28 02:02:02;;;;;;;9.43;8.52;;;;;;;10.43;88.55;95779.19;4953779;28;20493;-65
2021/05/28 02:04:28;;;;;;;8.00;7.30;;;;;;;10.36;87.85;95790.19;4953350;28;20704;-66
2021/05/28 02:06:54;;;;;;;9.60;8.70;;;;;;;10.24;87.98;95794.34;4953756;28;20076;-65
2021/05/28 02:09:20;;;;;;;9.00;7.70;;;;;;;10.06;88.65;95777.25;4953821;28;20102;-65
2021/05/28 02:11:46;;;;;;;9.77;8.85;;;;;;;10.04;88.95;95784.72;4953890;28;20473;-66
2021/05/28 02:14:11;;;;;;;12.35;10.60;;;;;;;9.92;88.82;95789.63;4954920;28;20040;-65
2021/05/28 02:16:37;;;;;;;12.02;9.90;;;;;;;9.77;89.01;95777.31;4953414;28;20102;-66
2021/05/28 02:19:03;;;;;;;10.95;9.90;;;;;;;9.68;88.92;95779.03;4953274;28;20075;-65
2021/05/28 02:21:29;;;;;;;10.35;9.25;;;;;;;9.74;89.64;95799.94;4953631;28;20043;-65
2021/05/28 02:23:55;;;;;;;8.77;7.65;;;;;;;9.60;89.54;95793.69;4952919;28;20065;-65
2021/05/28 02:26:21;;;;;;;10.07;8.68;;;;;;;9.54;89.67;95779.69;4954416;28;20027;-65
2021/05/28 02:28:46;;;;;;;11.10;9.88;;;;;;;9.50;90.14;95768.03;4952802;28;20058;-65
2021/05/28 02:31:12;;;;;;;10.50;9.50;;;;;;;9.61;90.32;95787.31;4952153;28;20047;-66
2021/05/28 02:33:37;;;;;;;9.27;8.38;;;;;;;9.59;90.07;95789.47;4952790;28;20151;-65
2021/05/28 02:36:06;;;;;;;10.23;9.13;;;;;;;9.60;90.42;95801.66;4953154;28;20050;-65
2021/05/28 02:38:32;;;;;;;13.00;10.77;;;;;;;9.48;90.12;95774.72;4953625;29;20109;-66
2021/05/28 02:40:58;;;;;;;10.57;9.13;;;;;;;9.57;89.71;95800.38;4953239;28;20134;-63
2021/05/28 02:43:24;;;;;;;14.88;11.60;;;;;;;9.58;90.10;95798.50;4952707;28;20069;-63
2021/05/28 02:45:50;;;;;;;10.02;9.13;;;;;;;9.45;90.02;95783.22;4953256;28;20043;-66
2021/05/28 02:48:15;;;;;;;13.25;10.48;;;;;;;9.46;89.80;95795.44;4953067;28;20058;-66
2021/05/28 02:50:40;;;;;;;13.85;10.85;;;;;;;9.26;89.73;95775.94;4953589;29;20027;-66
2021/05/28 02:53:06;;;;;;;19.27;13.15;;;;;;;9.30;89.62;95795.56;4951399;28;20130;-66
2021/05/28 02:55:31;;;;;;;15.30;10.40;;;;;;;9.16;89.58;95785.88;4952533;28;20035;-66
2021/05/28 02:57:57;;;;;;;11.98;10.75;;;;;;;9.17;89.39;95793.56;4951583;28;20046;-65
2021/05/28 03:00:23;;;;;;;13.90;12.10;;;;;;;9.11;89.62;95795.47;4952868;28;20047;-66
2021/05/28 03:02:49;;;;;;;14.65;9.48;;;;;;;9.06;89.42;95792.09;4951264;28;20036;-66
2021/05/28 03:05:15;;;;;;;10.93;8.43;;;;;;;8.91;89.78;95776.28;4954703;28;20086;-65
2021/05/28 03:07:40;;;;;;;12.30;11.10;;;;;;;8.87;89.89;95775.25;4952654;28;20041;-65
2021/05/28 03:10:07;;;;;;;14.13;12.10;;;;;;;8.96;90.18;95794.81;4952733;28;20035;-65
2021/05/28 03:12:33;;;;;;;14.80;12.70;;;;;;;8.92;90.17;95789.25;4952247;28;20031;-65
2021/05/28 03:14:58;;;;;;;15.43;13.85;;;;;;;8.95;90.00;95796.66;4952477;28;20027;-65
2021/05/28 03:17:24;;;;;;;13.95;11.38;;;;;;;8.95;90.93;95786.03;4954325;29;20095;-66
2021/05/28 03:19:50;;;;;;;17.80;13.07;;;;;;;9.06;91.26;95784.13;4952373;28;20148;-65
2021/05/28 03:22:35;;;;;;;14.00;11.20;;;;;;;9.17;91.30;95782.16;4952029;28;20039;-65
2021/05/28 03:25:11;;;;;;;10.77;9.68;;;;;;;9.42;91.21;95802.38;4952374;28;20086;-63
2021/05/28 03:27:37;;;;;;;8.40;7.60;;;;;;;9.47;91.13;95791.69;4952367;28;20055;-65
2021/05/28 03:30:05;;;;;;;9.70;8.70;;;;;;;9.72;91.60;95806.59;4951212;28;20027;-65
2021/05/28 03:32:30;;;;;;;10.52;9.43;;;;;;;9.85;91.87;95801.41;4953734;28;20062;-65
2021/05/28 03:34:57;;;;;;;13.73;11.95;;;;;;;10.02;91.58;95805.47;4951120;28;20131;-65
2021/05/28 03:37:23;;;;;;;9.32;8.43;;;;;;;10.16;91.22;95803.72;4952512;28;20523;-65
2021/05/28 03:39:49;;;;;;;7.75;7.05;;;;;;;10.13;91.37;95785.66;4951009;28;20043;-65
2021/05/28 03:42:15;;;;;;;13.48;9.43;;;;;;;10.37;91.44;95801.63;4951743;28;20047;-65
2021/05/28 03:44:40;;;;;;;9.90;8.95;;;;;;;10.50;90.72;95806.25;4954311;28;20031;-65
2021/05/28 03:47:06;;;;;;;9.90;8.93;;;;;;;10.58;90.78;95808.25;4952063;28;20043;-66
2021/05/28 03:49:31;;;;;;;10.93;8.93;;;;;;;10.75;90.64;95814.94;4952144;28;20035;-65
2021/05/28 03:51:57;;;;;;;9.75;8.75;;;;;;;10.83;91.21;95817.75;4952023;28;20094;-65
2021/05/28 03:54:22;;;;;;;9.15;8.00;;;;;;;10.92;90.55;95812.56;4951452;28;20134;-65
2021/05/28 03:56:49;;;;;;;8.32;5.53;;;;;;;11.00;89.67;95814.56;4951666;28;20077;-66
2021/05/28 03:59:15;;;;;;;8.65;7.55;;;;;;;11.09;89.63;95812.81;4952414;29;20038;-65
2021/05/28 04:01:41;;;;;;;6.20;5.60;;;;;;;11.25;89.61;95810.72;4951899;28;20093;-66
2021/05/28 04:04:06;;;;;;;5.10;4.68;;;;;;;11.45;88.67;95801.59;4949812;28;20043;-65
2021/05/28 04:06:32;;;;;;;4.20;3.80;;;;;;;11.64;88.04;95812.19;4951588;28;20031;-65
2021/05/28 04:08:57;;;;;;;4.05;3.75;;;;;;;11.61;87.83;95794.13;4951696;28;20381;-65
2021/05/28 04:11:23;;;;;;;4.40;4.00;;;;;;;11.75;87.07;95813.59;4953406;28;20023;-65
2021/05/28 04:13:49;;;;;;;4.50;4.10;;;;;;;11.76;87.35;95807.16;4934532;28;20454;-65
2021/05/28 04:16:14;;;;;;;5.88;5.32;;;;;;;11.79;87.13;95808.47;4931185;28;20040;-64
2021/05/28 04:18:40;;;;;;;4.88;4.38;;;;;;;11.82;87.07;95807.91;4939775;28;20049;-64
2021/05/28 04:21:05;;;;;;;7.07;4.88;;;;;;;11.87;86.98;95808.59;4951341;28;20042;-64
2021/05/28 04:23:31;;;;;;;5.22;4.72;;;;;;;11.99;86.83;95815.31;4952672;28;20031;-64
2021/05/28 04:25:56;;;;;;;5.80;4.20;;;;;;;11.97;86.79;95819.06;4951193;28;20440;-66
2021/05/28 04:28:22;;;;;;;3.90;3.58;;;;;;;12.09;86.59;95825.81;4951320;28;20454;-65
2021/05/28 04:30:47;;;;;;;5.68;3.90;;;;;;;12.08;85.54;95806.34;4951380;28;20036;-65
2021/05/28 04:33:13;;;;;;;4.22;3.65;;;;;;;12.21;85.45;95812.75;4950597;28;20027;-65
2021/05/28 04:35:38;;;;;;;3.72;3.38;;;;;;;12.28;85.26;95818.47;4953040;28;20050;-65
2021/05/28 04:38:04;;;;;;;4.68;3.60;;;;;;;12.34;84.85;95809.28;4951166;28;20490;-65
2021/05/28 04:40:30;;;;;;;3.80;3.00;;;;;;;12.39;84.53;95797.72;4951157;28;20035;-65
2021/05/28 04:42:56;;;;;;;4.10;3.22;;;;;;;12.54;84.54;95808.09;4949196;28;20063;-65
2021/05/28 04:45:22;;;;;;;5.95;2.80;;;;;;;12.63;84.24;95816.16;4950983;28;20516;-66
2021/05/28 04:47:48;;;;;;;3.15;2.80;;;;;;;12.71;83.91;95821.56;4949511;28;20074;-65
2021/05/28 04:50:13;;;;;;;3.17;2.80;;;;;;;12.73;83.38;95806.03;4952757;28;20055;-65
2021/05/28 04:52:41;;;;;;;5.15;2.65;;;;;;;12.91;83.09;95816.88;4950590;28;20066;-65
2021/05/28 04:55:07;;;;;;;2.50;2.30;;;;;;;13.01;82.77;95808.63;4950810;28;20102;-64
2021/05/28 04:57:32;;;;;;;4.10;2.33;;;;;;;13.18;82.79;95810.63;4950606;28;20043;-65
2021/05/28 04:59:57;;;;;;;4.07;2.35;;;;;;;13.32;81.46;95827.44;4950832;28;20047;-65
2021/05/28 05:02:23;;;;;;;4.65;2.10;;;;;;;13.29;80.34;95812.00;4952122;28;20026;-65
2021/05/28 05:04:48;;;;;;;2.00;1.90;;;;;;;13.47;80.99;95820.94;4950760;28;20044;-65
2021/05/28 05:07:13;;;;;;;4.60;1.90;;;;;;;13.60;80.47;95827.28;4950613;28;20058;-65
2021/05/28 05:09:39;;;;;;;2.28;2.15;;;;;;;13.63;79.83;95816.00;4949234;28;20066;-65
2021/05/28 05:12:05;;;;;;;3.13;2.25;;;;;;;13.71;79.24;95826.72;4950470;28;20078;-65
2021/05/28 05:14:30;;;;;;;2.58;1.98;;;;;;;13.82;78.50;95829.94;4952102;28;20023;-65
2021/05/28 05:16:55;;;;;;;4.38;2.10;;;;;;;13.89;77.89;95824.94;4950704;28;20035;-65
2021/05/28 05:19:21;;;;;;;2.92;1.98;;;;;;;14.00;78.29;95836.94;4950612;28;20578;-65
2021/05/28 05:21:47;;;;;;;4.28;1.70;;;;;;;14.14;78.95;95836.84;4950744;28;20090;-67
2021/05/28 05:24:12;;;;;;;4.32;2.28;;;;;;;14.21;77.89;95831.81;4949819;28;20031;-66
2021/05/28 05:26:39;;;;;;;3.25;2.20;;;;;;;14.36;77.11;95843.19;4953062;28;20038;-70
2021/05/28 05:29:05;;;;;;;2.95;1.70;;;;;;;14.45;77.31;95833.31;4949996;28;20046;-71
2021/05/28 05:31:31;;;;;;;3.88;1.42;;;;;;;14.55;76.22;95833.84;4954094;28;20412;-71
2021/05/28 05:33:56;;;;;;;3.30;1.60;;;;;;;14.52;75.27;95821.06;4953821;28;20031;-71
2021/05/28 05:36:23;;;;;;;2.22;1.50;;;;;;;14.72;75.29;95835.75;4954807;28;20404;-81
2021/05/28 05:38:49;;;;;;;2.08;1.88;;;;;;;14.71;74.01;95830.72;4954321;28;20030;-64
2021/05/28 05:41:14;;;;;;;1.73;1.63;;;;;;;14.82;73.10;95840.03;4956106;29;20019;-63
2021/05/28 05:43:40;;;;;;;1.92;1.42;;;;;;;14.76;71.82;95830.56;4953653;28;20209;-62
2021/05/28 05:46:05;;;;;;;2.80;1.50;;;;;;;14.86;71.98;95838.28;4953766;28;20039;-64
2021/05/28 05:48:31;;;;;;;6.65;1.85;;;;;;;14.79;72.30;95832.59;4954575;28;20037;-70
2021/05/28 05:50:58;;;;;;;5.85;1.50;;;;;;;14.63;72.07;95834.16;4954711;28;20034;-72
2021/05/28 05:53:24;;;;;;;4.00;1.42;;;;;;;14.40;72.85;95830.78;4955458;28;20493;-67
2021/05/28 05:55:49;;;;;;;1.58;1.48;;;;;;;14.26;72.49;95831.66;4953414;28;20090;-66
2021/05/28 05:58:15;;;;;;;3.75;1.70;;;;;;;14.09;73.92;95818.25;4953677;28;20035;-67
2021/05/28 06:00:40;;;;;;;2.03;1.58;;;;;;;14.03;73.66;95822.16;4952417;28;20043;-66
2021/05/28 06:03:06;;;;;;;4.15;2.03;;;;;;;14.04;74.24;95827.19;4953239;28;20046;-62
2021/05/28 06:05:31;;;;;;;2.15;1.30;;;;;;;14.00;73.05;95823.56;4955449;28;20679;-61
2021/05/28 06:07:57;;;;;;;4.30;1.60;;;;;;;14.01;74.19;95827.00;4953692;28;20090;-78
2021/05/28 06:10:22;;;;;;;1.73;1.60;;;;;;;14.09;75.19;95822.81;4953918;28;20076;-81
2021/05/28 06:12:48;;;;;;;2.10;1.40;;;;;;;13.92;71.15;95824.31;4954069;28;20043;-76
2021/05/28 06:15:13;;;;;;;2.92;1.40;;;;;;;13.93;71.83;95817.88;4953797;28;20059;-72
2021/05/28 06:17:39;;;;;;;1.98;1.40;;;;;;;14.05;72.91;95828.75;4955305;29;20031;-69
2021/05/28 06:20:05;;;;;;;3.95;1.35;;;;;;;14.10;73.97;95806.44;4952197;29;20075;-67
2021/05/28 06:22:32;;;;;;;1.35;1.20;;;;;;;14.23;73.06;95810.13;4951687;28;20035;-71
2021/05/28 06:24:57;;;;;;;4.07;1.50;;;;;;;14.33;72.43;95820.53;4953207;28;20437;-68
2021/05/28 06:27:23;;;;;;;3.20;1.50;;;;;;;14.26;68.42;95828.22;4953556;28;20027;-74
2021/05/28 06:29:48;;;;;;;2.97;1.45;;;;;;;14.29;71.00;95828.38;4953426;28;20334;-71
2021/05/28 06:32:14;;;;;;;3.55;1.85;;;;;;;14.35;71.15;95828.25;4954614;29;20121;-67
2021/05/28 06:34:40;;;;;;;2.17;1.90;;;;;;;14.35;70.16;95831.72;4953265;28;20040;-66
2021/05/28 06:37:05;;;;;;;3.53;1.70;;;;;;;14.41;69.78;95829.66;4951840;28;20156;-66
2021/05/28 06:39:31;;;;;;;3.22;2.20;;;;;;;14.48;71.07;95825.47;4953220;28;20047;-65
2021/05/28 06:41:56;;;;;;;3.25;2.10;;;;;;;14.47;71.30;95812.38;4953182;28;20493;-68
2021/05/28 06:44:23;;;;;;;3.83;2.35;;;;;;;14.61;70.05;95820.31;4953237;28;20485;-70
2021/05/28 06:46:52;;;;;;;3.70;2.17;;;;;;;14.67;69.05;95830.53;4952960;28;20043;-66
2021/05/28 06:49:19;;;;;;;2.67;2.13;;;;;;;14.70;69.38;95829.16;4953054;28;20134;-72
2021/05/28 06:51:46;;;;;;;6.47;2.17;;;;;;;13.41;64.39;95833.63;4952885;28;20160;-67
2021/05/28 06:54:12;;;;;;;4.20;2.58;;;;;;;12.99;62.72;95835.63;4952448;28;20035;-66
2021/05/28 06:56:38;;;;;;;5.57;2.42;;;;;;;13.00;64.76;95844.44;4954509;28;20789;-67
2021/05/28 06:59:06;;;;;;;2.85;2.65;;;;;;;12.67;68.95;95849.16;4952728;28;20059;-67
2021/05/28 07:01:31;;;;;;;2.80;2.50;;;;;;;12.62;69.69;95841.25;4952189;28;20457;-67
2021/05/28 07:04:00;;;;;;;4.55;2.60;;;;;;;13.04;64.77;95837.41;4951712;28;20043;-67
2021/05/28 07:06:26;;;;;;;5.35;2.42;;;;;;;13.35;66.11;95842.06;4952062;28;20086;-67
2021/05/28 07:08:51;;;;;;;3.08;2.50;;;;;;;13.73;65.12;95847.81;4952619;28;20510;-66
2021/05/28 07:11:16;;;;;;;3.03;2.58;;;;;;;14.19;68.51;95835.91;4954413;28;20036;-66
2021/05/28 07:13:42;;;;;;;2.50;2.30;;;;;;;14.08;64.40;95838.06;4952139;28;20062;-66
2021/05/28 07:16:07;;;;;;;4.22;2.88;;;;;;;13.23;62.57;95843.38;4952609;28;20035;-65
2021/05/28 07:18:32;;;;;;;2.85;2.45;;;;;;;13.09;62.69;95849.84;4951008;28;20039;-66
2021/05/28 07:20:58;;;;;;;3.22;2.85;;;;;;;13.80;64.38;95834.78;4952344;28;20358;-68
2021/05/28 07:23:25;;;;;;;5.60;2.65;;;;;;;14.31;62.70;95849.47;4953480;28;20031;-67
2021/05/28 07:25:51;;;;;;;2.88;2.65;;;;;;;14.59;61.07;95830.53;4952110;28;20051;-67
2021/05/28 07:28:16;;;;;;;3.25;2.53;;;;;;;14.99;61.08;95847.28;4952253;28;20035;-67
2021/05/28 07:30:42;;;;;;;3.05;2.45;;;;;;;15.30;62.96;95847.94;4952223;28;20122;-67
2021/05/28 07:33:07;;;;;;;2.97;2.30;;;;;;;15.73;63.41;95841.75;4951615;28;20517;-67
2021/05/28 07:35:32;;;;;;;5.53;2.38;;;;;;;16.32;61.79;95851.78;4953316;28;20081;-67
2021/05/28 07:37:58;;;;;;;3.00;2.80;;;;;;;15.71;55.92;95838.56;4951196;28;20039;-68
2021/05/28 07:40:24;;;;;;;3.45;2.15;;;;;;;15.97;56.07;95843.88;4951784;28;20517;-67
2021/05/28 07:42:50;;;;;;;2.53;2.28;;;;;;;16.16;54.20;95830.06;4951389;28;20489;-68
2021/05/28 07:45:15;;;;;;;3.65;2.45;;;;;;;16.73;53.79;95847.66;4950263;28;20044;-67
2021/05/28 07:47:41;;;;;;;3.67;2.42;;;;;;;16.83;54.25;95834.63;4953251;28;20485;-68
2021/05/28 07:50:09;;;;;;;4.47;2.42;;;;;;;16.21;51.44;95845.22;4950435;28;20180;-67
2021/05/28 07:52:34;;;;;;;3.80;2.40;;;;;;;15.97;52.99;95838.53;4951421;28;20067;-67
2021/05/28 07:55:01;;;;;;;4.25;2.30;;;;;;;16.55;51.05;95842.38;4951657;28;20147;-67
2021/05/28 07:57:27;;;;;;;4.43;2.13;;;;;;;15.70;53.02;95817.44;4951535;28;20505;-67
2021/05/28 07:59:53;;;;;;;2.85;2.58;;;;;;;16.25;52.89;95838.88;4951660;28;20038;-68
2021/05/28 08:02:18;;;;;;;5.32;2.60;;;;;;;16.36;53.71;95837.41;4953028;28;20170;-68
2021/05/28 08:04:45;;;;;;;4.97;2.78;;;;;;;14.99;56.63;95848.06;4951274;28;20047;-67
2021/05/28 08:07:10;;;;;;;3.10;2.38;;;;;;;15.20;55.74;95842.06;4951604;28;20035;-67
2021/05/28 08:09:35;;;;;;;3.10;2.45;;;;;;;14.69;58.32;95840.94;4944959;28;20130;-68
2021/05/28 08:12:01;;;;;;;6.47;2.47;;;;;;;14.87;57.34;95845.22;4935331;28;20545;-68
2021/05/28 08:14:26;;;;;;;4.28;2.67;;;;;;;15.80;55.15;95843.94;4953314;29;20069;-68
2021/05/28 08:16:52;;;;;;;2.92;2.50;;;;;;;16.21;52.53;95853.25;4951276;28;20039;-68
2021/05/28 08:19:17;;;;;;;2.70;2.42;;;;;;;16.62;49.56;95837.25;4951266;28;20051;-67
2021/05/28 08:21:43;;;;;;;5.72;2.15;;;;;;;17.41;49.13;95845.59;4951488;28;20039;-69
2021/05/28 08:24:09;;;;;;;3.25;2.30;;;;;;;17.64;47.64;95830.63;4950757;28;20134;-68
2021/05/28 08:26:34;;;;;;;2.95;2.60;;;;;;;16.45;49.62;95850.00;4952168;29;20086;-68
2021/05/28 08:29:00;;;;;;;3.38;2.35;;;;;;;16.27;50.25;95831.28;4949800;28;20045;-68
2021/05/28 08:31:25;;;;;;;2.35;2.13;;;;;;;16.13;50.90;95827.25;4951207;28;20478;-68
2021/05/28 08:33:50;;;;;;;2.90;2.60;;;;;;;16.18;51.80;95833.22;4950672;28;20047;-68
2021/05/28 08:36:16;;;;;;;3.40;2.40;;;;;;;16.07;51.79;95843.53;4951058;28;20046;-68
2021/05/28 08:38:41;;;;;;;2.92;2.70;;;;;;;15.39;51.33;95847.91;4952945;29;20058;-67
2021/05/28 08:41:09;;;;;;;3.13;2.70;;;;;;;16.14;50.15;95836.88;4951016;28;20051;-67
2021/05/28 08:43:35;;;;;;;2.72;2.53;;;;;;;16.54;49.51;95843.47;4950414;28;20102;-68
2021/05/28 08:46:06;;;;;;;3.22;2.88;;;;;;;16.32;48.65;95841.84;4950823;28;20448;-68
2021/05/28 08:48:31;;;;;;;;;;;;;;;17.68;48.05;95833.47;4951281;28;20090;-68
2021/05/28 08:50:57;;;;;;;2.50;2.30;;;;;;;18.55;45.87;95814.41;4950938;28;19919;-68
2021/05/28 08:53:24;;;;;;;3.83;2.08;;;;;;;19.60;45.56;95821.69;4952146;29;20027;-68
2021/05/28 08:55:49;;;;;;;2.75;2.55;;;;;;;18.96;43.49;95824.13;4950241;28;20046;-68
2021/05/28 08:58:17;;;;;;;3.40;2.55;;;;;;;18.38;45.68;95826.19;4950639;28;20062;-68
2021/05/28 09:00:47;;;;;;;3.55;2.25;;;;;;;18.13;44.76;95814.63;4949779;28;20031;-68
2021/05/28 09:03:21;;;;;;;2.50;2.30;;;;;;;17.64;45.88;95835.22;4949953;28;20047;-67
2021/05/28 09:05:48;;;;;;;2.65;2.40;;;;;;;17.41;47.50;95826.75;4950309;28;20035;-67
2021/05/28 09:08:22;;;;;;;3.50;3.05;;;;;;;16.48;50.94;95847.47;4952337;28;20070;-68
2021/05/28 09:10:47;;;;;;;3.42;2.83;;;;;;;15.78;51.99;95836.19;4950591;28;20579;-67
2021/05/28 09:13:22;;;;;;;3.15;2.78;;;;;;;15.74;52.48;95839.84;4948683;28;20051;-67
2021/05/28 09:16:03;;;;;;;3.55;3.25;;;;;;;16.07;51.71;95843.53;4950286;28;20039;-68
2021/05/28 09:18:44;;;;;;;3.22;2.70;;;;;;;16.04;51.45;95824.59;4950347;28;20039;-67
2021/05/28 09:21:10;;;;;;;3.00;2.70;;;;;;;17.31;50.21;95844.09;4950357;28;20505;-67
2021/05/28 09:23:36;;;;;;;3.42;2.70;;;;;;;17.39;48.39;95824.38;4951825;29;20039;-68
2021/05/28 09:26:05;;;;;;;3.13;2.63;;;;;;;16.99;48.86;95842.88;4950033;28;20489;-67
2021/05/28 09:28:37;;;;;;;2.85;2.67;;;;;;;16.99;48.19;95837.53;4950301;28;20042;-67
2021/05/28 09:31:07;;;;;;;2.92;2.72;;;;;;;17.71;45.40;95842.75;4950196;28;20155;-68
2021/05/28 09:33:37;;;;;;;3.78;2.30;;;;;;;17.51;45.49;95839.00;4949868;28;20070;-68
2021/05/28 09:36:23;;;;;;;2.30;2.10;;;;;;;17.07;47.13;95843.97;4950211;28;20394;-67
2021/05/28 09:39:01;;;;;;;3.65;2.60;;;;;;;18.73;44.07;95843.81;4950324;28;20051;-68
2021/05/28 09:41:45;;;;;;;3.47;2.83;;;;;;;18.31;43.51;95835.94;4952115;29;20023;-67
2021/05/28 09:44:21;;;;;;;2.47;1.90;;;;;;;17.40;45.28;95830.53;4949937;28;20043;-67
2021/05/28 09:47:03;;;;;;;3.03;1.80;;;;;;;18.23;43.95;95839.53;4950229;28;20040;-66
2021/05/28 09:49:32;;;;;;;2.00;1.90;;;;;;;17.70;43.02;95841.19;4950161;28;20497;-67
2021/05/28 09:52:03;;;;;;;2.13;1.92;;;;;;;17.68;44.00;95831.56;4949999;28;20047;-67
2021/05/28 09:54:29;;;;;;;2.03;1.83;;;;;;;18.58;42.06;95832.59;4949752;28;20040;-67
2021/05/28 09:56:54;;;;;;;2.75;2.55;;;;;;;17.71;46.38;95835.50;4949963;28;20038;-67
2021/05/28 09:59:19;;;;;;;4.13;2.58;;;;;;;17.68;47.78;95836.94;4951742;29;20547;-67
2021/05/28 10:01:59;;;;;;;3.40;2.78;;;;;;;18.01;45.75;95825.34;4950037;28;20481;-67
2021/05/28 10:04:24;;;;;;;3.13;2.83;;;;;;;17.44;46.98;95833.38;4949797;28;20453;-67
2021/05/28 10:06:50;;;;;;;2.60;2.40;;;;;;;17.57;45.62;95835.78;4949862;28;20062;-67
2021/05/28 10:09:15;;;;;;;2.90;2.58;;;;;;;17.35;45.68;95825.38;4950154;28;20035;-67
2021/05/28 10:11:41;;;;;;;4.32;2.55;;;;;;;16.25;49.42;95824.66;4953978;28;20027;-68
2021/05/28 10:14:08;;;;;;;3.20;3.00;;;;;;;15.62;52.12;95831.66;4952951;28;20039;-67
2021/05/28 10:16:35;;;;;;;3.15;2.83;;;;;;;15.96;50.61;95838.81;4953296;28;20048;-67
2021/05/28 10:19:01;;;;;;;2.75;2.55;;;;;;;16.83;47.96;95829.25;4953268;28;20171;-67
2021/05/28 10:21:27;;;;;;;2.90;2.58;;;;;;;16.90;48.45;95818.00;4951758;28;20126;-68
2021/05/28 10:23:53;;;;;;;2.97;2.65;;;;;;;17.34;46.30;95804.97;4951369;28;20039;-69
2021/05/28 10:26:30;;;;;;;3.60;2.80;;;;;;;17.71;46.44;95810.47;4954737;29;20034;-64
2021/05/28 10:28:56;;;;;;;6.93;3.45;;;;;;;18.43;43.76;95811.72;4953055;28;20046;-65
2021/05/28 10:31:54;;;;;;;3.47;2.95;;;;;;;16.99;47.91;95834.03;4952968;28;20040;-64
2021/05/28 10:34:22;;;;;;;7.38;3.22;;;;;;;17.53;47.90;95816.03;4951065;28;20043;-66
2021/05/28 10:36:48;;;;;;;3.60;2.80;;;;;;;18.41;45.91;95824.72;4952769;28;20427;-68
2021/05/28 10:39:16;;;;;;;3.10;2.80;;;;;;;17.77;46.15;95807.28;4951396;28;20036;-66
2021/05/28 10:42:12;;;;;;;4.30;3.25;;;;;;;18.25;45.15;95829.22;4954597;28;20027;-66
2021/05/28 10:44:44;;;;;;;4.05;3.00;;;;;;;19.33;42.58;95809.75;4947008;29;20090;-66
2021/05/28 10:47:09;;;;;;;2.80;2.60;;;;;;;19.53;41.91;95816.84;4952878;28;20066;-67
2021/05/28 10:49:41;;;;;;;2.50;2.30;;;;;;;19.39;42.98;95803.75;4952282;28;20066;-67
2021/05/28 10:52:07;;;;;;;3.67;2.97;;;;;;;19.60;41.63;95806.28;4952276;28;20445;-67
2021/05/28 10:54:35;;;;;;;3.40;3.15;;;;;;;19.09;41.50;95792.53;4951835;28;20043;-65
2021/05/28 10:57:31;;;;;;;3.20;2.85;;;;;;;19.01;41.80;95809.63;4952475;28;20055;-66
2021/05/28 11:00:03;;;;;;;3.20;2.20;;;;;;;20.51;40.25;95802.75;4952100;28;20067;-65
2021/05/28 11:02:45;;;;;;;2.95;2.60;;;;;;;20.84;38.84;95798.88;4953807;28;20032;-65
2021/05/28 11:05:11;;;;;;;;;;;;;;;18.18;43.85;95798.25;4934248;29;20095;-64
2021/05/28 11:07:42;;;;;;;3.45;2.67;;;;;;;19.87;41.16;95798.50;4946878;28;19926;-64
2021/05/28 11:10:25;;;;;;;3.90;2.47;;;;;;;19.32;41.14;95789.28;4952272;28;20549;-64
2021/05/28 11:12:54;;;;;;;3.80;3.03;;;;;;;18.61;43.01;95817.63;4951934;28;20060;-64
2021/05/28 11:15:27;;;;;;;4.28;2.75;;;;;;;17.81;46.24;95810.06;4947414;28;20044;-64
2021/05/28 11:18:04;;;;;;;3.85;3.30;;;;;;;17.82;45.99;95803.59;4930976;28;20481;-64
2021/05/28 11:20:42;;;;;;;4.28;3.20;;;;;;;17.86;46.16;95807.97;4954034;28;20037;-65
2021/05/28 11:23:22;;;;;;;2.88;2.67;;;;;;;17.98;45.86;95798.34;4950504;28;20050;-64
2021/05/28 11:25:51;;;;;;;3.65;3.35;;;;;;;17.45;46.76;95810.72;4935161;28;20350;-65
2021/05/28 11:28:17;;;;;;;5.85;3.17;;;;;;;19.08;43.96;95800.94;4943463;29;20050;-61
2021/05/28 11:30:51;;;;;;;4.07;3.15;;;;;;;19.78;42.33;95787.06;4950089;28;20673;-66